.
WxDataArchive / Data Records for 2010-02-22
2010-02-21 February 2010 2010-02-23

Data Records for Monday, 22 February 2010

Time	Temp	Chill	HIndex	Humid	Dewpt	 Wind 	HiWind	WindDir	Rain 	Barom 
-----	----	-----	------	-----	-----	------	------	-------	-----	----- 
00:00	32.5	28.7	32.5	95	31.2	4	7	112	0.00	29.889 
00:05	32.5	32.5	32.5	95	31.2	3	6	112	0.00	29.889 
00:10	32.5	32.5	32.5	96	31.5	3	6	112	0.01	29.889 
00:15	32.5	32.5	32.5	95	31.2	3	6	90	0.00	29.888 
00:20	32.5	32.5	32.5	96	31.5	2	4	90	0.01	29.888 
00:25	32.7	28.9	32.7	96	31.7	4	11	90	0.00	29.888 
00:30	32.7	27.9	32.7	96	31.7	5	11	90	0.00	29.873 
00:35	32.7	28.9	32.7	96	31.7	4	14	112	0.00	29.873 
00:40	32.7	28.9	32.7	96	31.7	4	10	90	0.01	29.873 
00:45	32.7	28.9	32.7	95	31.4	4	10	90	0.00	29.860 
00:50	32.7	32.7	32.7	96	31.7	3	7	90	0.00	29.860 
00:55	32.7	32.7	32.7	96	31.7	3	6	90	0.01	29.860 
01:00	32.7	32.7	32.7	95	31.4	3	7	112	0.00	29.852 
01:05	32.7	28.9	32.7	95	31.4	4	9	112	0.00	29.852 
01:10	32.7	32.7	32.7	95	31.4	3	9	112	0.01	29.852 
01:15	32.7	28.9	32.7	95	31.4	4	6	112	0.00	29.841 
01:20	32.7	32.7	32.7	95	31.4	3	7	112	0.00	29.841 
01:25	32.7	27.9	32.7	96	31.7	5	11	112	0.01	29.841 
01:30	32.7	28.9	32.7	96	31.7	4	11	90	0.00	29.828 
01:35	32.7	32.7	32.7	96	31.7	3	10	90	0.00	29.828 
01:40	32.7	32.7	32.7	95	31.4	3	10	112	0.00	29.828 
01:45	32.7	28.9	32.7	96	31.7	4	10	112	0.01	29.818 
01:50	32.7	32.7	32.7	96	31.7	3	10	90	0.00	29.818 
01:55	32.7	32.7	32.7	95	31.4	2	9	112	0.00	29.818 
02:00	32.7	32.7	32.7	95	31.4	3	10	90	0.01	29.814 
02:05	32.7	32.7	32.7	95	31.4	3	7	112	0.00	29.814 
02:10	32.7	32.7	32.7	95	31.4	2	7	112	0.00	29.814 
02:15	32.7	28.9	32.7	95	31.4	4	12	112	0.01	29.812 
02:20	32.7	32.7	32.7	96	31.7	3	9	112	0.00	29.812 
02:25	32.7	32.7	32.7	96	31.7	3	7	112	0.01	29.812 
02:30	32.7	32.7	32.7	96	31.7	3	6	112	0.00	29.809 
02:35	32.7	32.7	32.7	96	31.7	2	6	112	0.00	29.809 
02:40	32.7	32.7	32.7	96	31.7	3	7	90	0.00	29.809 
02:45	32.7	32.7	32.7	96	31.7	2	7	90	0.01	29.803 
02:50	32.7	32.7	32.7	96	31.7	3	11	90	0.00	29.803 
02:55	32.7	32.7	32.7	95	31.4	3	7	90	0.00	29.803 
03:00	32.7	32.7	32.7	96	31.7	3	9	112	0.00	29.782 
03:05	32.7	28.9	32.7	96	31.7	4	9	112	0.01	29.782 
03:10	32.7	32.7	32.7	96	31.7	3	8	90	0.00	29.782 
03:15	32.7	32.7	32.7	96	31.7	3	10	112	0.00	29.778 
03:20	32.7	32.7	32.7	96	31.7	2	7	112	0.01	29.778 
03:25	32.7	32.7	32.7	96	31.7	3	7	112	0.00	29.778 
03:30	32.7	28.9	32.7	96	31.7	4	8	112	0.00	29.764 
03:35	32.7	32.7	32.7	96	31.7	3	7	90	0.01	29.764 
03:40	32.8	32.8	32.8	96	31.8	3	9	112	0.00	29.764 
03:45	32.8	32.8	32.8	96	31.8	2	6	90	0.00	29.749 
03:50	32.8	32.8	32.8	96	31.8	2	9	112	0.00	29.749 
03:55	32.8	32.8	32.8	96	31.8	3	7	112	0.01	29.749 
04:00	32.8	32.8	32.8	96	31.8	3	8	90	0.00	29.743 
04:05	32.8	29.0	32.8	96	31.8	4	9	90	0.00	29.743 
04:10	32.9	32.9	32.9	96	31.9	3	6	90	0.01	29.743 
04:15	32.8	32.8	32.8	96	31.8	3	6	112	0.00	29.737 
04:20	32.8	32.8	32.8	96	31.8	3	7	90	0.00	29.737 
04:25	32.9	32.9	32.9	96	31.9	3	7	90	0.00	29.737 
04:30	32.9	29.1	32.9	96	31.9	4	7	90	0.00	29.731 
04:35	32.9	32.9	32.9	96	31.9	2	6	112	0.00	29.731 
04:40	32.9	32.9	32.9	96	31.9	2	6	112	0.00	29.731 
04:45	32.9	32.9	32.9	96	31.9	3	9	90	0.00	29.728 
04:50	33.1	29.3	33.1	96	32.1	4	6	90	0.01	29.728 
04:55	33.1	29.3	33.1	96	32.1	4	10	112	0.00	29.728 
05:00	33.2	29.5	33.2	96	32.2	4	8	90	0.00	29.720 
05:05	33.2	29.5	33.2	96	32.2	4	10	90	0.00	29.720 
05:10	33.2	29.5	33.2	96	32.2	4	10	90	0.00	29.720 
05:15	33.2	29.5	33.2	96	32.2	4	10	112	0.00	29.719 
05:20	33.2	29.5	33.2	96	32.2	4	10	90	0.00	29.719 
05:25	33.2	28.5	33.2	95	31.9	5	11	90	0.01	29.719 
05:30	33.2	33.2	33.2	95	31.9	3	6	112	0.00	29.706 
05:35	33.2	33.2	33.2	95	31.9	3	7	112	0.00	29.706 
05:40	33.2	29.5	33.2	95	31.9	4	10	112	0.01	29.706 
05:45	33.2	28.5	33.2	95	31.9	5	11	90	0.00	29.703 
05:50	33.2	33.2	33.2	95	31.9	3	7	112	0.01	29.703 
05:55	33.1	29.3	33.1	95	31.8	4	9	112	0.00	29.703 
06:00	33.1	33.1	33.1	95	31.8	3	7	90	0.01	29.696 
06:05	33.1	29.3	33.1	95	31.8	4	8	90	0.00	29.696 
06:10	33.1	33.1	33.1	95	31.8	3	9	90	0.01	29.696 
06:15	33.1	33.1	33.1	95	31.8	3	7	90	0.00	29.694 
06:20	33.1	29.3	33.1	95	31.8	4	10	90	0.00	29.694 
06:25	33.1	29.3	33.1	95	31.8	4	10	90	0.01	29.694 
06:30	33.1	29.3	33.1	95	31.8	4	10	90	0.00	29.690 
06:35	32.9	32.9	32.9	95	31.6	3	9	90	0.01	29.690 
06:40	32.9	32.9	32.9	95	31.6	3	10	90	0.00	29.690 
06:45	32.9	32.9	32.9	95	31.6	3	7	112	0.01	29.691 
06:50	32.9	32.9	32.9	95	31.6	3	7	90	0.00	29.691 
06:55	32.9	32.9	32.9	95	31.6	3	7	90	0.00	29.691 
07:00	32.9	32.9	32.9	95	31.6	2	6	90	0.01	29.688 
07:05	32.9	32.9	32.9	95	31.6	3	9	90	0.00	29.688 
07:10	32.9	32.9	32.9	95	31.6	3	7	90	0.01	29.688 
07:15	32.9	32.9	32.9	95	31.6	3	9	90	0.01	29.679 
07:20	32.9	29.1	32.9	95	31.6	4	8	90	0.00	29.679 
07:25	32.8	29.0	32.8	95	31.5	4	7	90	0.01	29.679 
07:30	32.8	32.8	32.8	95	31.5	2	5	90	0.00	29.674 
07:35	32.8	32.8	32.8	95	31.5	3	7	90	0.00	29.674 
07:40	32.8	32.8	32.8	95	31.5	2	7	112	0.01	29.674 
07:45	32.8	32.8	32.8	95	31.5	1	4	112	0.00	29.674 
07:50	32.8	32.8	32.8	95	31.5	2	7	112	0.00	29.674 
07:55	32.9	32.9	32.9	95	31.6	2	8	90	0.01	29.674 
08:00	32.9	32.9	32.9	95	31.6	1	5	90	0.00	29.674 
08:05	32.9	32.9	32.9	95	31.6	1	4	90	0.00	29.674 
08:10	32.9	32.9	32.9	95	31.6	1	4	90	0.00	29.674 
08:15	32.9	32.9	32.9	95	31.6	1	5	90	0.01	29.673 
08:20	32.9	32.9	32.9	95	31.6	1	4	90	0.00	29.673 
08:25	32.9	32.9	32.9	95	31.6	2	4	90	0.00	29.673 
08:30	32.9	32.9	32.9	95	31.6	2	3	90	0.00	29.673 
08:35	32.9	32.9	32.9	95	31.6	1	4	112	0.01	29.673 
08:40	32.9	32.9	32.9	95	31.6	1	5	112	0.00	29.673 
08:45	33.1	33.1	33.1	95	31.8	1	4	90	0.01	29.672 
08:50	33.1	33.1	33.1	95	31.8	1	4	90	0.00	29.672 
08:55	33.1	33.1	33.1	95	31.8	0	4	90	0.00	29.672 
09:00	33.1	33.1	33.1	95	31.8	0	2	90	0.00	29.669 
09:05	33.1	33.1	33.1	95	31.8	1	3	90	0.00	29.669 
09:10	33.1	33.1	33.1	95	31.8	1	6	68	0.00	29.669 
09:15	33.1	33.1	33.1	95	31.8	1	4	112	0.00	29.663 
09:20	33.2	33.2	33.2	95	31.9	0	2	112	0.00	29.663 
09:25	33.2	33.2	33.2	96	32.2	0	2	112	0.00	29.663 
09:30	33.2	33.2	33.2	95	31.9	1	3	112	0.01	29.663 
09:35	33.2	33.2	33.2	95	31.9	0	1	112	0.00	29.663 
09:40	33.4	33.4	33.4	95	32.1	0	1	112	0.00	29.663 
09:45	33.4	33.4	33.4	96	32.4	0	2	112	0.00	29.667 
09:50	33.4	33.4	33.4	96	32.4	0	1	112	0.00	29.667 
09:55	33.5	33.5	33.5	95	32.2	0	1	112	0.00	29.667 
10:00	33.5	33.5	33.5	95	32.2	0	2	112	0.00	29.670 
10:05	33.4	33.4	33.4	95	32.1	0	0	---	0.01	29.670 
10:10	33.4	33.4	33.4	95	32.1	0	0	---	0.00	29.670 
10:15	33.5	33.5	33.5	95	32.2	0	0	---	0.00	29.672 
10:20	33.4	33.4	33.4	95	32.1	0	0	---	0.00	29.672 
10:25	33.5	33.5	33.5	95	32.2	0	1	112	0.00	29.672 
10:30	33.4	33.4	33.4	95	32.1	0	1	112	0.00	29.670 
10:35	33.4	33.4	33.4	95	32.1	0	0	---	0.00	29.670 
10:40	33.5	33.5	33.5	95	32.2	0	1	112	0.01	29.670 
10:45	33.5	33.5	33.5	95	32.2	0	2	112	0.00	29.669 
10:50	33.5	33.5	33.5	95	32.2	0	1	112	0.00	29.669 
10:55	33.7	33.7	33.7	95	32.4	0	0	---	0.00	29.669 
11:00	33.8	33.8	33.8	96	32.8	0	0	---	0.00	29.668 
11:05	34.0	34.0	34.0	96	33.0	0	1	112	0.00	29.668 
11:10	34.1	34.1	34.1	96	33.1	0	1	112	0.00	29.668 
11:15	34.1	34.1	34.1	95	32.8	0	1	112	0.00	29.666 
11:20	34.3	34.3	34.3	95	33.0	0	1	112	0.01	29.666 
11:25	34.3	34.3	34.3	95	33.0	0	1	112	0.00	29.666 
11:30	34.3	34.3	34.3	95	33.0	0	1	112	0.00	29.667 
11:35	34.4	34.4	34.4	95	33.1	0	2	112	0.00	29.667 
11:40	34.6	34.6	34.6	95	33.3	0	2	90	0.00	29.667 
11:45	34.7	34.7	34.7	95	33.4	0	2	45	0.00	29.661 
11:50	34.9	34.9	34.9	95	33.6	0	1	45	0.00	29.661 
11:55	35.0	35.0	35.0	95	33.7	0	1	45	0.00	29.661 
12:00	35.0	35.0	35.0	95	33.7	0	1	22	0.00	29.662 
12:05	35.0	35.0	35.0	95	33.7	0	2	22	0.00	29.662 
12:10	35.0	35.0	35.0	95	33.7	0	2	22	0.00	29.662 
12:15	35.0	35.0	35.0	95	33.7	0	2	22	0.00	29.667 
12:20	34.9	34.9	34.9	95	33.6	0	1	22	0.00	29.667 
12:25	34.7	34.7	34.7	95	33.4	0	1	22	0.00	29.667 
12:30	34.9	34.9	34.9	95	33.6	0	1	22	0.00	29.671 
12:35	34.9	34.9	34.9	95	33.6	0	3	22	0.00	29.671 
12:40	34.7	34.7	34.7	95	33.4	0	3	45	0.00	29.671 
12:45	34.9	34.9	34.9	95	33.6	0	2	0	0.00	29.668 
12:50	34.9	34.9	34.9	95	33.6	0	2	338	0.00	29.668 
12:55	34.9	34.9	34.9	95	33.6	1	4	22	0.00	29.668 
13:00	34.9	34.9	34.9	94	33.4	1	3	22	0.00	29.658 
13:05	34.7	34.7	34.7	94	33.2	0	2	22	0.00	29.658 
13:10	34.9	34.9	34.9	94	33.4	0	2	22	0.00	29.658 
13:15	34.9	34.9	34.9	94	33.4	0	2	22	0.00	29.657 
13:20	35.0	35.0	35.0	94	33.5	0	2	22	0.00	29.657 
13:25	34.9	34.9	34.9	94	33.4	0	3	315	0.00	29.657 
13:30	35.0	35.0	35.0	93	33.2	0	2	315	0.00	29.663 
13:35	34.9	34.9	34.9	93	33.1	0	2	22	0.00	29.663 
13:40	35.0	35.0	35.0	93	33.2	0	3	270	0.00	29.663 
13:45	35.0	35.0	35.0	93	33.2	0	2	45	0.00	29.660 
13:50	35.0	35.0	35.0	92	32.9	0	3	45	0.00	29.660 
13:55	34.9	34.9	34.9	92	32.8	0	2	0	0.00	29.660 
14:00	34.7	34.7	34.7	92	32.6	0	2	0	0.00	29.671 
14:05	34.7	34.7	34.7	92	32.6	0	3	292	0.00	29.671 
14:10	34.7	34.7	34.7	92	32.6	0	3	270	0.00	29.671 
14:15	34.7	34.7	34.7	91	32.3	0	3	270	0.00	29.674 
14:20	34.9	34.9	34.9	91	32.5	0	2	270	0.00	29.674 
14:25	34.9	34.9	34.9	90	32.3	0	2	270	0.00	29.674 
14:30	34.9	34.9	34.9	90	32.3	0	1	68	0.00	29.674 
14:35	34.9	34.9	34.9	90	32.3	0	2	68	0.00	29.674 
14:40	35.0	35.0	35.0	89	32.1	0	1	338	0.00	29.674 
14:45	35.0	35.0	35.0	89	32.1	0	2	338	0.00	29.676 
14:50	35.0	35.0	35.0	89	32.1	0	1	338	0.00	29.676 
14:55	35.0	35.0	35.0	89	32.1	0	5	338	0.00	29.676 
15:00	34.9	34.9	34.9	88	31.7	1	3	0	0.00	29.680 
15:05	34.7	34.7	34.7	88	31.5	1	6	270	0.00	29.680 
15:10	34.7	34.7	34.7	88	31.5	0	3	292	0.00	29.680 
15:15	34.6	34.6	34.6	88	31.4	0	1	315	0.00	29.687 
15:20	34.4	34.4	34.4	88	31.2	0	4	315	0.00	29.687 
15:25	34.3	34.3	34.3	88	31.1	0	3	292	0.00	29.687 
15:30	34.1	34.1	34.1	88	30.9	0	3	270	0.00	29.700 
15:35	34.0	34.0	34.0	88	30.8	1	4	338	0.00	29.700 
15:40	34.0	34.0	34.0	88	30.8	0	1	338	0.00	29.700 
15:45	34.0	34.0	34.0	88	30.8	0	2	338	0.00	29.704 
15:50	34.0	34.0	34.0	88	30.8	0	2	338	0.00	29.704 
15:55	34.0	34.0	34.0	88	30.8	0	2	338	0.00	29.704 
16:00	34.0	34.0	34.0	88	30.8	0	2	338	0.00	29.707 
16:05	34.0	34.0	34.0	87	30.5	1	6	292	0.00	29.707 
16:10	33.8	33.8	33.8	87	30.3	0	3	0	0.00	29.707 
16:15	34.0	34.0	34.0	87	30.5	0	4	0	0.00	29.707 
16:20	33.8	33.8	33.8	87	30.3	0	2	0	0.00	29.707 
16:25	33.7	33.7	33.7	87	30.3	1	5	292	0.00	29.707 
16:30	33.7	33.7	33.7	87	30.3	0	2	315	0.00	29.712 
16:35	33.8	33.8	33.8	87	30.3	1	3	292	0.00	29.712 
16:40	33.7	33.7	33.7	86	30.0	1	5	270	0.00	29.712 
16:45	33.5	33.5	33.5	86	29.8	0	2	292	0.00	29.714 
16:50	33.5	33.5	33.5	86	29.8	0	2	292	0.00	29.714 
16:55	33.5	33.5	33.5	86	29.8	0	1	292	0.00	29.714 
17:00	33.4	33.4	33.4	85	29.4	0	1	292	0.00	29.720 
17:05	33.2	33.2	33.2	86	29.5	0	1	292	0.00	29.720 
17:10	33.1	33.1	33.1	86	29.4	0	2	292	0.00	29.720 
17:15	33.1	33.1	33.1	85	29.1	0	2	22	0.00	29.715 
17:20	32.9	32.9	32.9	85	28.9	0	2	22	0.00	29.715 
17:25	32.9	32.9	32.9	85	28.9	1	3	270	0.00	29.715 
17:30	32.9	32.9	32.9	85	28.9	0	1	270	0.00	29.726 
17:35	32.8	32.8	32.8	85	28.8	0	2	270	0.00	29.726 
17:40	32.8	32.8	32.8	85	28.8	1	4	0	0.00	29.726 
17:45	32.7	32.7	32.7	85	28.7	0	2	0	0.00	29.734 
17:50	32.7	32.7	32.7	85	28.7	0	2	0	0.00	29.734 
17:55	32.7	32.7	32.7	85	28.7	1	2	315	0.00	29.734 
18:00	32.5	32.5	32.5	85	28.5	0	3	22	0.00	29.737 
18:05	32.5	32.5	32.5	85	28.5	0	2	292	0.00	29.737 
18:10	32.5	32.5	32.5	85	28.5	1	3	292	0.00	29.737 
18:15	32.5	32.5	32.5	85	28.5	0	1	315	0.00	29.747 
18:20	32.4	32.4	32.4	85	28.4	0	1	315	0.00	29.747 
18:25	32.4	32.4	32.4	85	28.4	0	1	315	0.00	29.747 
18:30	32.4	32.4	32.4	85	28.4	0	3	270	0.00	29.751 
18:35	32.4	32.4	32.4	85	28.4	0	1	270	0.00	29.751 
18:40	32.4	32.4	32.4	85	28.4	0	2	270	0.00	29.751 
18:45	32.2	32.2	32.2	85	28.2	0	0	---	0.00	29.753 
18:50	32.2	32.2	32.2	85	28.2	0	2	270	0.00	29.753 
18:55	32.2	32.2	32.2	85	28.2	0	2	0	0.00	29.753 
19:00	32.2	32.2	32.2	85	28.2	0	1	0	0.00	29.754 
19:05	32.2	32.2	32.2	85	28.2	0	2	0	0.00	29.754 
19:10	32.2	32.2	32.2	85	28.2	0	2	0	0.00	29.754 
19:15	32.2	32.2	32.2	85	28.2	0	2	270	0.00	29.767 
19:20	32.2	32.2	32.2	85	28.2	0	2	270	0.00	29.767 
19:25	32.2	32.2	32.2	85	28.2	0	3	270	0.00	29.767 
19:30	32.2	32.2	32.2	85	28.2	0	2	315	0.00	29.775 
19:35	32.2	32.2	32.2	85	28.2	0	2	315	0.00	29.775 
19:40	32.1	32.1	32.1	85	28.1	0	2	315	0.00	29.775 
19:45	32.1	32.1	32.1	85	28.1	0	1	315	0.00	29.784 
19:50	32.1	32.1	32.1	85	28.1	0	2	315	0.00	29.784 
19:55	32.1	32.1	32.1	85	28.1	0	3	315	0.00	29.784 
20:00	31.9	31.9	31.9	85	27.9	1	3	338	0.00	29.785 
20:05	31.9	31.9	31.9	85	27.9	0	2	338	0.00	29.785 
20:10	31.9	31.9	31.9	85	27.9	0	2	338	0.00	29.785 
20:15	31.9	31.9	31.9	85	27.9	0	2	338	0.00	29.788 
20:20	31.9	31.9	31.9	85	27.9	0	3	338	0.00	29.788 
20:25	31.9	31.9	31.9	85	27.9	0	2	338	0.00	29.788 
20:30	31.9	31.9	31.9	85	27.9	1	3	292	0.00	29.796 
20:35	31.8	31.8	31.8	85	27.8	1	4	292	0.00	29.796 
20:40	31.8	31.8	31.8	85	27.8	0	2	315	0.00	29.796 
20:45	31.8	31.8	31.8	85	27.8	0	2	315	0.00	29.802 
20:50	31.8	31.8	31.8	85	27.8	0	4	315	0.00	29.802 
20:55	31.8	31.8	31.8	85	27.8	0	1	270	0.00	29.802 
21:00	31.8	31.8	31.8	85	27.8	0	1	338	0.00	29.806 
21:05	31.8	31.8	31.8	85	27.8	0	1	338	0.00	29.806 
21:10	31.8	31.8	31.8	85	27.8	0	2	338	0.00	29.806 
21:15	31.8	31.8	31.8	85	27.8	0	1	338	0.00	29.814 
21:20	31.8	31.8	31.8	85	27.8	0	1	338	0.00	29.814 
21:25	31.8	31.8	31.8	85	27.8	0	1	338	0.00	29.814 
21:30	31.8	31.8	31.8	85	27.8	0	1	338	0.00	29.815 
21:35	31.8	31.8	31.8	85	27.8	0	2	338	0.00	29.815 
21:40	31.8	31.8	31.8	85	27.8	1	5	315	0.00	29.815 
21:45	31.8	31.8	31.8	84	27.5	0	5	315	0.00	29.812 
21:50	31.6	31.6	31.6	84	27.3	1	2	292	0.00	29.812 
21:55	31.6	31.6	31.6	84	27.3	1	3	292	0.00	29.812 
22:00	31.6	31.6	31.6	84	27.3	0	3	270	0.00	29.808 
22:05	31.6	31.6	31.6	84	27.3	0	3	270	0.00	29.808 
22:10	31.6	31.6	31.6	84	27.3	1	3	270	0.00	29.808 
22:15	31.6	31.6	31.6	84	27.3	0	1	338	0.00	29.809 
22:20	31.6	31.6	31.6	84	27.3	1	3	248	0.00	29.809 
22:25	31.5	31.5	31.5	84	27.2	1	2	338	0.00	29.809 
22:30	31.5	31.5	31.5	84	27.2	0	2	338	0.00	29.805 
22:35	31.5	31.5	31.5	84	27.2	0	2	338	0.00	29.805 
22:40	31.5	31.5	31.5	84	27.2	0	3	22	0.00	29.805 
22:45	31.5	31.5	31.5	84	27.2	0	3	22	0.00	29.800 
22:50	31.5	31.5	31.5	84	27.2	0	2	270	0.00	29.800 
22:55	31.3	31.3	31.3	84	27.0	0	4	270	0.00	29.800 
23:00	31.5	31.5	31.5	84	27.2	0	1	270	0.00	29.801 
23:05	31.3	31.3	31.3	84	27.0	0	1	270	0.00	29.801 
23:10	31.3	31.3	31.3	84	27.0	0	3	22	0.00	29.801 
23:15	31.3	31.3	31.3	84	27.0	0	2	292	0.00	29.800 
23:20	31.5	31.5	31.5	84	27.2	0	2	292	0.00	29.800 
23:25	31.5	31.5	31.5	85	27.5	0	3	292	0.00	29.800 
23:30	31.5	31.5	31.5	85	27.5	0	2	292	0.00	29.800 
23:35	31.5	31.5	31.5	85	27.5	0	2	292	0.00	29.800 
23:40	31.3	31.3	31.3	85	27.3	0	3	292	0.00	29.800 
23:45	31.3	31.3	31.3	86	27.6	1	3	0	0.00	29.801 
23:50	31.2	31.2	31.2	85	27.2	1	4	270	0.00	29.801 
23:55	31.2	31.2	31.2	85	27.2	0	2	270	0.00	29.801 

CoCoRaHS
IN-AL-39
A2 Web Hosting
Creative Commons License
GoDaddy
search engine by freefind advanced

loaded 2018-11-18 11:17:33 • last modified 2010-11-18 10:43:29
Privacy PolicyDisclaimer
• wx.awcolley.com is powered by PmWiki v.2002016 •
• all content (unless otherwise noted) © 2018 A W Colley